Αθήνα, Ελλάδα

05:00 AM EEST on Μάιος 29, 2015 (GMT +0300)
SV1GST - SOURMENA HELLINIKO | | Change Station
CLOSE
Current Station
Personal Weather Stations
Location: Athina, Attiki
Elevation: 300 ft
Nearby Weather Stations
Active Advisory: Thunderstorms

Elev 300 ft 37.89 °N, 23.75 °E | Updated 6 seconds ago

Mostly Cloudy
Νεφελώδης
61.4 ° F
Feels Like 61.4 ° F
N
2.0
Ανεμος Μεταβλητός Ανεμος from Βόρειος
Gusts 3.0 mph

Σήμερα
High -- | Low -- ° F
--% Chance of Precip.
Yesterday
High -- | Low -- ° F
Precip. -- in
6:05 AM 8:39 PM
Αμφίκυρτος, 80% visible
Ατμοσφαιρική Πίεση 29.80 in
Ορατότητα 6.2 Μίλια
Σύννεφα Διάσπαρτα Νέφη 2000 ft
Νεφελώδης 7000 ft
Σημείο Δρόσου 52 ° F
Υγρασία 71%
Rainfall 0.00 in
Snow Depth Not available.
Υπεριώδης ακτινοβολία (UV) 0 out of 12
Pollen Not available.
Air Quality Not available.
Flu Activity Not available.
METAR LGAV 290150Z 35006KT 9999 SCT020 BKN070 15/09 Q1009 NOSIG

More Conditions Fewer Conditions

Ατμοσφαιρική Πίεση 29.80 in
Ορατότητα 6.2 Μίλια
Σύννεφα Διάσπαρτα Νέφη 2000 ft
Νεφελώδης 7000 ft
Σημείο Δρόσου 52 ° F
Υγρασία 71%
Rainfall 0.00 in
Snow Depth Not available.
Υπεριώδης ακτινοβολία (UV) 0 out of 12
Pollen Not available.
Air Quality Not available.
Flu Activity Not available.
METAR LGAV 290150Z 35006KT 9999 SCT020 BKN070 15/09 Q1009 NOSIG

More Conditions Fewer Conditions

10-Day Weather Forecast

Almanac

Αστρονομία

May. 29, 2015 Rise Set
Actual Time
Civil Twilight
Nautical Twilight
Astronomical Twilight
Moon
Length Of Visible Light
Διάρκεια ημέρας
Tomorrow will be .
, % of the Moon is Illuminated

Today's Extremes

Country Highs Country Lows

Community

WunderPhotos

Upload Photos

1,825,125 photos uploaded!

WunderBlogs® & News

Nearby

Air Quality

  Air Quality AQ Index Pollutant
Not available.

Snow Depth

Station Depth Elevation

Earthquake Activity

City Distance Mag. Time & Date
Minimum magnitude displayed is 2.5.

Coastal Water Temperatures

Τοποθεσία Θερμοκρασία

Stations

Nearby Weather Stations

Station Location Temp Δείκτης Ψυχρότητας Σημείο Δρόσου Υγρασία Ανεμος Precip. Elev Ενημερώθηκε Type